createdAt,value
2018-11-25T00:00:02.639Z,0
2018-11-25T00:01:12.356Z,0
2018-11-25T00:02:22.305Z,0
2018-11-25T00:03:31.998Z,0
2018-11-25T00:04:41.716Z,0
2018-11-25T00:05:51.405Z,0
2018-11-25T00:07:01.368Z,0
2018-11-25T00:08:11.075Z,0
2018-11-25T00:09:21.035Z,0
2018-11-25T00:10:30.966Z,0
2018-11-25T00:11:40.419Z,0
2018-11-25T00:12:50.153Z,0
2018-11-25T00:13:59.642Z,0
2018-11-25T00:15:09.101Z,0
2018-11-25T00:16:18.790Z,0
2018-11-25T00:17:28.501Z,0
2018-11-25T00:18:37.953Z,0
2018-11-25T00:19:47.670Z,0
2018-11-25T00:20:57.374Z,0
2018-11-25T00:22:07.090Z,0
2018-11-25T00:23:17.047Z,0
2018-11-25T00:24:26.746Z,0
2018-11-25T00:25:36.461Z,0
2018-11-25T00:26:45.671Z,0
2018-11-25T00:27:55.376Z,0
2018-11-25T00:29:04.837Z,0
2018-11-25T00:30:14.795Z,0
2018-11-25T00:31:23.980Z,0
2018-11-25T00:32:33.425Z,0
2018-11-25T00:33:42.878Z,0
2018-11-25T00:34:52.577Z,0
2018-11-25T00:36:02.574Z,0
2018-11-25T00:37:12.036Z,0
2018-11-25T00:38:21.987Z,0
2018-11-25T00:39:31.935Z,0
2018-11-25T00:40:41.886Z,0
2018-11-25T00:41:51.881Z,0
2018-11-25T00:43:01.939Z,0
2018-11-25T00:44:11.634Z,0
2018-11-25T00:45:21.365Z,0
2018-11-25T00:46:31.071Z,0
2018-11-25T00:47:41.019Z,0
2018-11-25T00:48:50.465Z,0
2018-11-25T00:50:00.412Z,0
2018-11-25T00:51:10.373Z,0
2018-11-25T00:52:20.341Z,0
2018-11-25T00:53:30.057Z,0
2018-11-25T00:54:39.764Z,0
2018-11-25T00:55:49.723Z,0
2018-11-25T00:56:59.488Z,0
2018-11-25T00:58:09.447Z,0
2018-11-25T00:59:18.899Z,0
2018-11-25T01:00:28.861Z,0
2018-11-25T01:01:38.582Z,0
2018-11-25T01:02:48.517Z,0
2018-11-25T01:03:57.734Z,0
2018-11-25T01:05:07.488Z,0
2018-11-25T01:06:17.679Z,0
2018-11-25T01:07:27.647Z,0
2018-11-25T01:08:37.593Z,0
2018-11-25T01:09:47.298Z,0
2018-11-25T01:10:57.324Z,0
2018-11-25T01:12:06.774Z,0
2018-11-25T01:13:16.478Z,0
2018-11-25T01:14:26.165Z,0
2018-11-25T01:15:35.866Z,0
2018-11-25T01:16:45.809Z,0
2018-11-25T01:17:55.769Z,0
2018-11-25T01:19:05.468Z,0
2018-11-25T01:20:15.421Z,0
2018-11-25T01:21:25.387Z,0
2018-11-25T01:22:35.348Z,0
2018-11-25T01:23:44.546Z,0
2018-11-25T01:24:54.245Z,0
2018-11-25T01:26:03.443Z,0
2018-11-25T01:27:13.170Z,0
2018-11-25T01:28:23.116Z,0
2018-11-25T01:29:32.833Z,0
2018-11-25T01:30:42.529Z,0
2018-11-25T01:31:52.485Z,0
2018-11-25T01:33:02.204Z,0
2018-11-25T01:34:11.908Z,0
2018-11-25T01:35:21.664Z,0
2018-11-25T01:36:31.613Z,0
2018-11-25T01:37:41.322Z,0
2018-11-25T01:38:51.279Z,0
2018-11-25T01:40:01.227Z,0
2018-11-25T01:41:10.917Z,0
2018-11-25T01:42:20.632Z,0
2018-11-25T01:43:30.590Z,0
2018-11-25T01:44:40.294Z,0
2018-11-25T01:45:50.236Z,0
2018-11-25T01:46:59.931Z,0
2018-11-25T01:48:09.887Z,0
2018-11-25T01:49:19.842Z,0
2018-11-25T01:50:29.539Z,0
2018-11-25T01:51:38.751Z,0
2018-11-25T01:52:48.456Z,0
2018-11-25T01:53:57.917Z,0
2018-11-25T01:55:07.629Z,0
2018-11-25T01:56:17.836Z,0
2018-11-25T01:57:27.283Z,0
2018-11-25T01:58:37.233Z,0
2018-11-25T01:59:46.678Z,0
2018-11-25T02:00:56.381Z,0
2018-11-25T02:02:06.076Z,0
2018-11-25T02:03:15.777Z,0
2018-11-25T02:04:25.729Z,0
2018-11-25T02:05:35.698Z,0
2018-11-25T02:06:45.162Z,0
2018-11-25T02:07:54.613Z,0
2018-11-25T02:09:04.063Z,0
2018-11-25T02:10:13.766Z,0
2018-11-25T02:11:23.469Z,0
2018-11-25T02:12:33.416Z,0
2018-11-25T02:13:42.612Z,0
2018-11-25T02:14:52.591Z,0
2018-11-25T02:16:02.046Z,0
2018-11-25T02:17:11.998Z,0
2018-11-25T02:18:21.709Z,0
2018-11-25T02:19:31.156Z,0
2018-11-25T02:20:40.853Z,0
2018-11-25T02:21:50.805Z,0
2018-11-25T02:23:00.243Z,0
2018-11-25T02:24:09.937Z,0
2018-11-25T02:25:19.647Z,0
2018-11-25T02:26:29.608Z,0
2018-11-25T02:27:39.073Z,0
2018-11-25T02:28:48.761Z,0
2018-11-25T02:29:58.703Z,0
2018-11-25T02:31:08.667Z,0
2018-11-25T02:32:18.358Z,0
2018-11-25T02:33:28.067Z,0
2018-11-25T02:34:38.012Z,0
2018-11-25T02:35:47.704Z,0
2018-11-25T02:36:57.408Z,0
2018-11-25T02:38:06.868Z,0
2018-11-25T02:39:16.568Z,0
2018-11-25T02:40:25.776Z,0
2018-11-25T02:41:35.227Z,0
2018-11-25T02:42:44.932Z,0
2018-11-25T02:43:54.629Z,0
2018-11-25T02:45:04.577Z,0
2018-11-25T02:46:13.799Z,0
2018-11-25T02:47:23.489Z,0
2018-11-25T02:48:32.963Z,0
2018-11-25T02:49:42.917Z,0
2018-11-25T02:50:52.862Z,0
2018-11-25T02:52:02.574Z,0
2018-11-25T02:53:12.289Z,0
2018-11-25T02:54:22.259Z,0
2018-11-25T02:55:32.219Z,0
2018-11-25T02:56:41.925Z,0
2018-11-25T02:57:51.628Z,0
2018-11-25T02:59:01.334Z,0
2018-11-25T03:00:11.038Z,0
2018-11-25T03:01:21.026Z,0
2018-11-25T03:02:30.729Z,0
2018-11-25T03:03:40.434Z,0
2018-11-25T03:04:50.392Z,0
2018-11-25T03:06:00.357Z,0
2018-11-25T03:07:10.059Z,0
2018-11-25T03:08:19.774Z,0
2018-11-25T03:09:29.503Z,0
2018-11-25T03:10:39.215Z,0
2018-11-25T03:11:48.664Z,0
2018-11-25T03:12:58.617Z,0
2018-11-25T03:14:08.311Z,0
2018-11-25T03:15:18.030Z,0
2018-11-25T03:16:27.969Z,0
2018-11-25T03:17:37.925Z,0
2018-11-25T03:18:47.625Z,0
2018-11-25T03:19:57.573Z,0
2018-11-25T03:21:07.029Z,0
2018-11-25T03:22:16.993Z,0
2018-11-25T03:23:26.957Z,0
2018-11-25T03:24:36.672Z,0
2018-11-25T03:25:46.372Z,0
2018-11-25T03:26:56.073Z,0
2018-11-25T03:28:05.776Z,0
2018-11-25T03:29:15.730Z,0
2018-11-25T03:30:25.434Z,0
2018-11-25T03:31:35.384Z,0
2018-11-25T03:32:44.829Z,0
2018-11-25T03:33:54.532Z,0
2018-11-25T03:35:03.992Z,0
2018-11-25T03:36:13.705Z,0
2018-11-25T03:37:23.706Z,0
2018-11-25T03:38:33.436Z,0
2018-11-25T03:39:43.401Z,0
2018-11-25T03:40:53.370Z,0
2018-11-25T03:42:03.311Z,0
2018-11-25T03:43:13.007Z,0
2018-11-25T03:44:22.215Z,0
2018-11-25T03:45:31.915Z,0
2018-11-25T03:46:41.616Z,0
2018-11-25T03:47:51.065Z,0
2018-11-25T03:49:00.996Z,0
2018-11-25T03:50:10.947Z,0
2018-11-25T03:51:20.150Z,0
2018-11-25T03:52:30.101Z,0
2018-11-25T03:53:39.550Z,0
2018-11-25T03:54:49.247Z,0
2018-11-25T03:55:58.202Z,0
2018-11-25T03:57:07.911Z,0
2018-11-25T03:58:17.358Z,0
2018-11-25T03:59:27.054Z,0
2018-11-25T04:00:36.995Z,0
2018-11-25T04:01:46.703Z,0
2018-11-25T04:02:56.681Z,0
2018-11-25T04:04:06.381Z,0
2018-11-25T04:05:16.339Z,0
2018-11-25T04:06:26.308Z,0
2018-11-25T04:07:36.006Z,0
2018-11-25T04:08:45.445Z,0
2018-11-25T04:09:55.413Z,0
2018-11-25T04:11:05.116Z,0
2018-11-25T04:12:14.830Z,0
2018-11-25T04:13:24.538Z,0
2018-11-25T04:14:34.251Z,0
2018-11-25T04:15:43.701Z,0
2018-11-25T04:16:53.652Z,0
2018-11-25T04:18:03.599Z,0
2018-11-25T04:19:13.537Z,0
2018-11-25T04:20:22.998Z,0
2018-11-25T04:21:32.948Z,0
2018-11-25T04:22:42.640Z,0
2018-11-25T04:23:52.339Z,0
2018-11-25T04:25:02.031Z,0
2018-11-25T04:26:11.471Z,0
2018-11-25T04:27:21.175Z,0
2018-11-25T04:28:31.136Z,0
2018-11-25T04:29:41.089Z,0
2018-11-25T04:30:50.553Z,0
2018-11-25T04:31:59.761Z,0
2018-11-25T04:33:08.973Z,0
2018-11-25T04:34:18.229Z,0
2018-11-25T04:35:28.191Z,0
2018-11-25T04:36:37.678Z,0
2018-11-25T04:37:46.625Z,0
2018-11-25T04:38:56.079Z,0
2018-11-25T04:40:06.033Z,0
2018-11-25T04:41:15.999Z,0
2018-11-25T04:42:25.696Z,0
2018-11-25T04:43:35.639Z,0
2018-11-25T04:44:45.345Z,0
2018-11-25T04:45:55.048Z,0
2018-11-25T04:47:05.010Z,0
2018-11-25T04:48:14.722Z,0
2018-11-25T04:49:24.445Z,0
2018-11-25T04:50:34.387Z,0
2018-11-25T04:51:44.333Z,0
2018-11-25T04:52:54.285Z,0
2018-11-25T04:54:04.235Z,0
2018-11-25T04:55:13.938Z,0
2018-11-25T04:56:23.640Z,0
2018-11-25T04:57:33.343Z,0
2018-11-25T04:58:43.281Z,0
2018-11-25T04:59:53.249Z,0
2018-11-25T05:01:03.202Z,0
2018-11-25T05:02:12.660Z,0
2018-11-25T05:03:22.602Z,0
2018-11-25T05:04:32.045Z,0
2018-11-25T05:05:41.989Z,0
2018-11-25T05:06:51.939Z,0
2018-11-25T05:08:01.638Z,0
2018-11-25T05:09:11.575Z,0
2018-11-25T05:10:21.296Z,0
2018-11-25T05:11:30.754Z,0
2018-11-25T05:12:40.211Z,0
2018-11-25T05:13:49.906Z,0
2018-11-25T05:14:59.340Z,0
2018-11-25T05:16:08.783Z,0
2018-11-25T05:17:18.477Z,0
2018-11-25T05:18:28.429Z,0
2018-11-25T05:19:38.132Z,0
2018-11-25T05:20:47.587Z,0
2018-11-25T05:21:57.541Z,0
2018-11-25T05:23:06.741Z,0
2018-11-25T05:24:16.434Z,0
2018-11-25T05:25:26.407Z,0
2018-11-25T05:26:36.347Z,0
2018-11-25T05:27:46.316Z,0
2018-11-25T05:28:56.289Z,0
2018-11-25T05:30:05.987Z,0
2018-11-25T05:31:15.936Z,0
2018-11-25T05:32:25.136Z,0
2018-11-25T05:33:35.088Z,0
2018-11-25T05:34:45.040Z,0
2018-11-25T05:35:54.490Z,0
2018-11-25T05:37:04.194Z,0
2018-11-25T05:38:13.889Z,0
2018-11-25T05:39:23.845Z,0
2018-11-25T05:40:33.796Z,0
2018-11-25T05:41:42.752Z,0
2018-11-25T05:42:52.739Z,0
2018-11-25T05:44:02.187Z,0
2018-11-25T05:45:11.897Z,0
2018-11-25T05:46:21.366Z,0
2018-11-25T05:47:31.062Z,0
2018-11-25T05:48:41.014Z,0
2018-11-25T05:49:50.218Z,0
2018-11-25T05:50:59.663Z,0
2018-11-25T05:52:09.364Z,0
2018-11-25T05:53:19.539Z,0
2018-11-25T05:54:29.248Z,0
2018-11-25T05:55:39.201Z,0
2018-11-25T05:56:48.908Z,0
2018-11-25T05:57:58.891Z,0
2018-11-25T05:59:08.841Z,0
2018-11-25T06:00:18.543Z,0
2018-11-25T06:01:28.505Z,0
2018-11-25T06:02:37.954Z,0
2018-11-25T06:03:47.655Z,0
2018-11-25T06:04:57.350Z,0
2018-11-25T06:06:06.808Z,0
2018-11-25T06:07:16.751Z,0
2018-11-25T06:08:26.710Z,0
2018-11-25T06:09:36.425Z,0
2018-11-25T06:10:47.335Z,0
2018-11-25T06:11:57.285Z,0
2018-11-25T06:13:06.486Z,0
2018-11-25T06:14:15.946Z,0
2018-11-25T06:15:25.901Z,0
2018-11-25T06:16:35.617Z,0
2018-11-25T06:17:45.328Z,0
2018-11-25T06:18:55.022Z,0
2018-11-25T06:20:04.719Z,0
2018-11-25T06:21:14.416Z,0
2018-11-25T06:22:24.369Z,0
2018-11-25T06:23:33.826Z,0
2018-11-25T06:24:43.529Z,0
2018-11-25T06:25:53.480Z,0
2018-11-25T06:27:03.188Z,0
2018-11-25T06:28:12.892Z,0
2018-11-25T06:29:22.593Z,0
2018-11-25T06:30:32.298Z,0
2018-11-25T06:31:41.990Z,0
2018-11-25T06:32:51.204Z,0
2018-11-25T06:34:01.150Z,0
2018-11-25T06:35:10.605Z,0
2018-11-25T06:36:20.306Z,0
2018-11-25T06:37:30.256Z,0
2018-11-25T06:38:40.212Z,0
2018-11-25T06:39:50.159Z,0
2018-11-25T06:41:00.127Z,0
2018-11-25T06:42:10.080Z,0
2018-11-25T06:43:19.769Z,0
2018-11-25T06:44:29.486Z,0
2018-11-25T06:45:39.189Z,5
2018-11-25T06:46:49.141Z,5
2018-11-25T06:47:59.162Z,5
2018-11-25T06:49:09.115Z,5
2018-11-25T06:50:19.672Z,5
2018-11-25T06:51:29.619Z,5
2018-11-25T06:52:39.324Z,5
2018-11-25T06:53:48.794Z,5
2018-11-25T06:54:58.499Z,5
2018-11-25T06:56:08.467Z,5
2018-11-25T06:57:17.909Z,10
2018-11-25T06:58:27.351Z,10
2018-11-25T06:59:37.087Z,10
2018-11-25T07:00:46.785Z,10
2018-11-25T07:01:56.498Z,10
2018-11-25T07:03:06.455Z,10
2018-11-25T07:04:15.901Z,10
2018-11-25T07:05:25.598Z,15
2018-11-25T07:06:35.299Z,15
2018-11-25T07:07:45.259Z,15
2018-11-25T07:08:54.950Z,15
2018-11-25T07:10:04.671Z,20
2018-11-25T07:11:14.377Z,20
2018-11-25T07:12:23.820Z,20
2018-11-25T07:13:33.784Z,25
2018-11-25T07:14:43.765Z,25
2018-11-25T07:15:53.465Z,30
2018-11-25T07:17:02.920Z,30
2018-11-25T07:18:12.109Z,35
2018-11-25T07:19:21.569Z,35
2018-11-25T07:20:31.281Z,35
2018-11-25T07:21:40.987Z,35
2018-11-25T07:22:50.442Z,35
2018-11-25T07:24:00.405Z,35
2018-11-25T07:25:10.107Z,40
2018-11-25T07:26:20.064Z,40
2018-11-25T07:27:30.015Z,40
2018-11-25T07:28:39.711Z,45
2018-11-25T07:29:49.666Z,50
2018-11-25T07:30:59.665Z,50
2018-11-25T07:32:09.648Z,50
2018-11-25T07:33:19.618Z,55
2018-11-25T07:34:29.579Z,60
2018-11-25T07:35:39.300Z,60
2018-11-25T07:36:48.752Z,55
2018-11-25T07:37:58.483Z,55
2018-11-25T07:39:08.174Z,55
2018-11-25T07:40:17.633Z,50
2018-11-25T07:41:27.355Z,50
2018-11-25T07:42:36.804Z,50
2018-11-25T07:43:46.532Z,45
2018-11-25T07:44:55.997Z,45
2018-11-25T07:46:05.464Z,45
2018-11-25T07:47:15.185Z,50
2018-11-25T07:48:25.146Z,50
2018-11-25T07:49:34.850Z,55
2018-11-25T07:50:44.552Z,55
2018-11-25T07:51:54.491Z,55
2018-11-25T07:53:04.195Z,55
2018-11-25T07:54:13.669Z,55
2018-11-25T07:55:23.130Z,55
2018-11-25T07:56:32.849Z,60
2018-11-25T07:57:42.565Z,60
2018-11-25T07:58:52.018Z,60
2018-11-25T08:00:01.716Z,65
2018-11-25T08:01:11.690Z,60
2018-11-25T08:02:21.420Z,60
2018-11-25T08:03:31.380Z,55
2018-11-25T08:04:41.137Z,55
2018-11-25T08:05:51.078Z,60
2018-11-25T08:07:00.781Z,60
2018-11-25T08:08:10.732Z,65
2018-11-25T08:09:20.484Z,65
2018-11-25T08:10:30.193Z,60
2018-11-25T08:11:39.881Z,60
2018-11-25T08:12:49.850Z,60
2018-11-25T08:13:59.570Z,60
2018-11-25T08:15:09.306Z,65
2018-11-25T08:16:19.021Z,70
2018-11-25T08:17:28.965Z,75
2018-11-25T08:18:38.973Z,85
2018-11-25T08:19:48.923Z,95
2018-11-25T08:20:58.881Z,100
2018-11-25T08:22:08.832Z,105
2018-11-25T08:23:20.399Z,105
2018-11-25T08:24:30.380Z,100
2018-11-25T08:25:39.828Z,95
2018-11-25T08:26:49.531Z,90
2018-11-25T08:27:59.250Z,85
2018-11-25T08:29:08.959Z,70
2018-11-25T08:30:18.731Z,65
2018-11-25T08:31:28.431Z,65
2018-11-25T08:32:38.129Z,65
2018-11-25T08:33:47.825Z,65
2018-11-25T08:34:57.786Z,65
2018-11-25T08:36:07.501Z,60
2018-11-25T08:37:17.207Z,60
2018-11-25T08:38:26.931Z,60
2018-11-25T08:39:37.988Z,60
2018-11-25T08:40:47.451Z,60
2018-11-25T08:41:57.396Z,60
2018-11-25T08:43:07.365Z,60
2018-11-25T08:44:17.325Z,60
2018-11-25T08:45:27.297Z,60
2018-11-25T08:46:37.247Z,60
2018-11-25T08:47:46.929Z,65
2018-11-25T08:48:56.633Z,70
2018-11-25T08:50:06.646Z,75
2018-11-25T08:51:16.599Z,75
2018-11-25T08:52:26.552Z,80
2018-11-25T08:53:36.003Z,90
2018-11-25T08:54:45.731Z,95
2018-11-25T08:55:55.705Z,95
2018-11-25T08:57:05.229Z,95
2018-11-25T08:58:14.920Z,100
2018-11-25T08:59:24.392Z,105
2018-11-25T09:00:34.732Z,105
2018-11-25T09:01:44.695Z,105
2018-11-25T09:02:54.402Z,100
2018-11-25T09:04:03.856Z,95
2018-11-25T09:05:13.329Z,100
2018-11-25T09:06:23.033Z,105
2018-11-25T09:07:32.497Z,115
2018-11-25T09:08:42.241Z,120
2018-11-25T09:09:52.052Z,120
2018-11-25T09:11:01.503Z,120
2018-11-25T09:12:11.201Z,115
2018-11-25T09:13:21.163Z,115
2018-11-25T09:14:30.876Z,110
2018-11-25T09:15:40.842Z,105
2018-11-25T09:16:50.802Z,105
2018-11-25T09:18:00.539Z,110
2018-11-25T09:19:10.264Z,115
2018-11-25T09:20:19.497Z,110
2018-11-25T09:21:29.201Z,110
2018-11-25T09:22:38.665Z,110
2018-11-25T09:23:48.626Z,105
2018-11-25T09:24:58.374Z,110
2018-11-25T09:26:08.341Z,110
2018-11-25T09:27:18.315Z,110
2018-11-25T09:28:28.249Z,110
2018-11-25T09:29:37.739Z,115
2018-11-25T09:30:47.697Z,105
2018-11-25T09:31:57.659Z,110
2018-11-25T09:33:07.368Z,105
2018-11-25T09:34:17.319Z,105
2018-11-25T09:35:27.301Z,110
2018-11-25T09:36:37.011Z,115
2018-11-25T09:37:46.473Z,120
2018-11-25T09:38:56.187Z,125
2018-11-25T09:40:05.907Z,140
2018-11-25T09:41:15.877Z,145
2018-11-25T09:42:25.825Z,160
2018-11-25T09:43:35.287Z,185
2018-11-25T09:44:45.256Z,200
2018-11-25T09:45:54.955Z,200
2018-11-25T09:47:04.422Z,195
2018-11-25T09:48:14.434Z,190
2018-11-25T09:49:24.391Z,185
2018-11-25T09:50:34.101Z,175
2018-11-25T09:51:43.799Z,175
2018-11-25T09:52:53.276Z,175
2018-11-25T09:54:03.231Z,175
2018-11-25T09:55:12.941Z,180
2018-11-25T09:56:22.888Z,190
2018-11-25T09:57:32.615Z,205
2018-11-25T09:58:42.314Z,225
2018-11-25T09:59:51.765Z,235
2018-11-25T10:01:01.474Z,225
2018-11-25T10:02:11.463Z,205
2018-11-25T10:03:20.895Z,185
2018-11-25T10:04:30.844Z,180
2018-11-25T10:05:40.831Z,175
2018-11-25T10:06:50.301Z,175
2018-11-25T10:08:00.255Z,170
2018-11-25T10:09:09.707Z,165
2018-11-25T10:10:19.182Z,165
2018-11-25T10:11:30.108Z,165
2018-11-25T10:12:39.888Z,170
2018-11-25T10:13:49.854Z,170
2018-11-25T10:14:59.555Z,165
2018-11-25T10:16:09.260Z,175
2018-11-25T10:17:18.731Z,180
2018-11-25T10:18:28.445Z,185
2018-11-25T10:19:38.410Z,175
2018-11-25T10:20:48.142Z,165
2018-11-25T10:21:58.105Z,155
2018-11-25T10:23:08.297Z,155
2018-11-25T10:24:18.254Z,150
2018-11-25T10:25:28.283Z,150
2018-11-25T10:26:38.264Z,150
2018-11-25T10:27:47.973Z,150
2018-11-25T10:28:57.685Z,155
2018-11-25T10:30:07.161Z,160
2018-11-25T10:31:17.132Z,160
2018-11-25T10:32:26.843Z,155
2018-11-25T10:33:36.819Z,150
2018-11-25T10:34:46.545Z,150
2018-11-25T10:35:56.496Z,145
2018-11-25T10:37:06.443Z,145
2018-11-25T10:38:16.422Z,145
2018-11-25T10:39:26.134Z,150
2018-11-25T10:40:35.873Z,155
2018-11-25T10:41:45.331Z,155
2018-11-25T10:42:55.059Z,165
2018-11-25T10:44:04.783Z,170
2018-11-25T10:45:14.744Z,175
2018-11-25T10:46:24.771Z,175
2018-11-25T10:47:34.482Z,170
2018-11-25T10:48:44.196Z,170
2018-11-25T10:49:53.650Z,175
2018-11-25T10:51:03.140Z,175
2018-11-25T10:52:12.857Z,175
2018-11-25T10:53:22.838Z,175
2018-11-25T10:54:32.807Z,175
2018-11-25T10:55:42.260Z,170
2018-11-25T10:56:52.228Z,165
2018-11-25T10:58:01.447Z,170
2018-11-25T10:59:11.147Z,170
2018-11-25T11:00:20.361Z,170
2018-11-25T11:01:30.598Z,175
2018-11-25T11:02:40.314Z,180
2018-11-25T11:03:49.530Z,170
2018-11-25T11:04:59.498Z,180
2018-11-25T11:06:08.977Z,190
2018-11-25T11:07:18.678Z,195
2018-11-25T11:08:28.390Z,185
2018-11-25T11:09:38.105Z,180
2018-11-25T11:10:47.817Z,180
2018-11-25T11:11:57.535Z,175
2018-11-25T11:13:08.254Z,175
2018-11-25T11:14:17.970Z,175
2018-11-25T11:15:27.931Z,175
2018-11-25T11:16:37.438Z,175
2018-11-25T11:17:47.153Z,180
2018-11-25T11:18:56.862Z,180
2018-11-25T11:20:06.328Z,180
2018-11-25T11:21:16.050Z,155
2018-11-25T11:22:25.253Z,140
2018-11-25T11:23:35.228Z,135
2018-11-25T11:24:44.945Z,130
2018-11-25T11:25:54.919Z,125
2018-11-25T11:27:04.896Z,125
2018-11-25T11:28:14.611Z,130
2018-11-25T11:29:23.829Z,140
2018-11-25T11:30:33.540Z,145
2018-11-25T11:31:43.274Z,150
2018-11-25T11:32:52.730Z,155
2018-11-25T11:34:02.455Z,150
2018-11-25T11:35:12.416Z,145
2018-11-25T11:36:21.872Z,145
2018-11-25T11:37:31.585Z,145
2018-11-25T11:38:41.554Z,140
2018-11-25T11:39:51.525Z,135
2018-11-25T11:41:00.967Z,140
2018-11-25T11:42:10.430Z,130
2018-11-25T11:43:20.388Z,130
2018-11-25T11:44:30.373Z,135
2018-11-25T11:45:40.101Z,140
2018-11-25T11:46:49.573Z,150
2018-11-25T11:47:59.287Z,165
2018-11-25T11:49:09.011Z,165
2018-11-25T11:50:18.480Z,160
2018-11-25T11:51:35.538Z,150
2018-11-25T11:52:45.244Z,140
2018-11-25T11:53:54.952Z,145
2018-11-25T11:55:04.667Z,155
2018-11-25T11:56:14.644Z,165
2018-11-25T11:57:24.606Z,175
2018-11-25T11:58:34.565Z,175
2018-11-25T11:59:44.530Z,170
2018-11-25T12:00:53.990Z,175
2018-11-25T12:02:03.958Z,165
2018-11-25T12:03:13.419Z,160
2018-11-25T12:04:23.377Z,155
2018-11-25T12:05:33.332Z,150
2018-11-25T12:06:42.796Z,145
2018-11-25T12:07:52.286Z,145
2018-11-25T12:09:01.730Z,145
2018-11-25T12:10:11.197Z,150
2018-11-25T12:11:20.919Z,160
2018-11-25T12:12:30.642Z,160
2018-11-25T12:13:41.049Z,150
2018-11-25T12:14:52.725Z,145
2018-11-25T12:16:02.696Z,140
2018-11-25T12:17:12.696Z,125
2018-11-25T12:18:22.414Z,120
2018-11-25T12:19:32.379Z,120
2018-11-25T12:20:41.873Z,115
2018-11-25T12:21:58.040Z,110
2018-11-25T12:23:08.184Z,110
2018-11-25T12:24:17.902Z,110
2018-11-25T12:25:27.609Z,110
2018-11-25T12:26:37.341Z,115
2018-11-25T12:27:47.312Z,105
2018-11-25T12:28:57.022Z,110
2018-11-25T12:30:07.010Z,105
2018-11-25T12:31:16.727Z,100
2018-11-25T12:32:26.193Z,105
2018-11-25T12:33:35.663Z,95
2018-11-25T12:34:45.630Z,85
2018-11-25T12:35:55.355Z,80
2018-11-25T12:37:05.094Z,75
2018-11-25T12:38:15.062Z,75
2018-11-25T12:39:30.764Z,75
2018-11-25T12:40:40.219Z,75
2018-11-25T12:41:49.418Z,75
2018-11-25T12:42:59.384Z,75
2018-11-25T12:44:08.850Z,75
2018-11-25T12:45:18.560Z,75
2018-11-25T12:46:28.020Z,75
2018-11-25T12:47:37.549Z,70
2018-11-25T12:48:47.007Z,65
2018-11-25T12:49:56.710Z,65
2018-11-25T12:51:06.419Z,60
2018-11-25T12:52:16.407Z,60
2018-11-25T12:53:26.105Z,60
2018-11-25T12:54:35.824Z,60
2018-11-25T12:55:45.274Z,65
2018-11-25T12:57:01.304Z,65
2018-11-25T12:58:11.034Z,65
2018-11-25T12:59:20.734Z,70
2018-11-25T13:00:30.691Z,65
2018-11-25T13:01:40.649Z,60
2018-11-25T13:02:50.297Z,60
2018-11-25T13:04:00.626Z,60
2018-11-25T13:05:10.885Z,55
2018-11-25T13:06:20.973Z,55
2018-11-25T13:07:30.765Z,55
2018-11-25T13:08:40.700Z,50
2018-11-25T13:09:50.862Z,50
2018-11-25T13:11:01.190Z,45
2018-11-25T13:12:11.023Z,45
2018-11-25T13:13:21.552Z,45
2018-11-25T13:14:31.710Z,45
2018-11-25T13:15:41.712Z,45
2018-11-25T13:16:51.332Z,45
2018-11-25T13:18:01.192Z,45
2018-11-25T13:19:10.968Z,45
2018-11-25T13:20:20.669Z,45
2018-11-25T13:21:29.994Z,45
2018-11-25T13:22:40.072Z,45
2018-11-25T13:23:52.857Z,45
2018-11-25T13:25:04.111Z,45
2018-11-25T13:26:13.932Z,45
2018-11-25T13:27:23.567Z,45
2018-11-25T13:28:33.872Z,45
2018-11-25T13:29:44.388Z,40
2018-11-25T13:30:54.586Z,40
2018-11-25T13:32:04.795Z,40
2018-11-25T13:33:14.335Z,40
2018-11-25T13:34:23.981Z,40
2018-11-25T13:35:35.234Z,40
2018-11-25T13:36:44.998Z,40
2018-11-25T13:37:54.451Z,40
2018-11-25T13:39:04.313Z,40
2018-11-25T13:40:14.123Z,40
2018-11-25T13:41:24.412Z,40
2018-11-25T13:42:34.176Z,40
2018-11-25T13:43:44.280Z,40
2018-11-25T13:44:53.979Z,40
2018-11-25T13:46:04.240Z,40
2018-11-25T13:47:14.469Z,35
2018-11-25T13:48:24.520Z,35
2018-11-25T13:49:34.866Z,35
2018-11-25T13:50:45.013Z,30
2018-11-25T13:51:54.982Z,30
2018-11-25T13:53:05.190Z,30
2018-11-25T13:54:14.974Z,30
2018-11-25T13:55:25.571Z,25
2018-11-25T13:56:35.374Z,25
2018-11-25T13:57:45.448Z,25
2018-11-25T13:58:55.543Z,25
2018-11-25T14:00:05.614Z,25
2018-11-25T14:01:15.923Z,25
2018-11-25T14:02:25.634Z,30
2018-11-25T14:03:35.353Z,30
2018-11-25T14:04:45.316Z,25
2018-11-25T14:06:02.146Z,30
2018-11-25T14:07:12.118Z,30
2018-11-25T14:08:21.582Z,25
2018-11-25T14:09:31.542Z,25
2018-11-25T14:10:41.246Z,25
2018-11-25T14:11:51.235Z,25
2018-11-25T14:13:01.211Z,25
2018-11-25T14:14:10.702Z,25
2018-11-25T14:15:20.666Z,20
2018-11-25T14:16:30.410Z,20
2018-11-25T14:17:40.132Z,20
2018-11-25T14:18:50.090Z,20
2018-11-25T14:19:59.806Z,15
2018-11-25T14:21:09.770Z,15
2018-11-25T14:22:19.536Z,15
2018-11-25T14:23:29.261Z,15
2018-11-25T14:24:39.015Z,15
2018-11-25T14:25:49.927Z,15
2018-11-25T14:26:59.906Z,15
2018-11-25T14:28:09.637Z,15
2018-11-25T14:29:19.348Z,10
2018-11-25T14:30:28.842Z,10
2018-11-25T14:31:38.045Z,15
2018-11-25T14:32:48.007Z,15
2018-11-25T14:33:57.714Z,10
2018-11-25T14:35:07.195Z,10
2018-11-25T14:36:16.911Z,10
2018-11-25T14:37:26.376Z,10
2018-11-25T14:38:36.350Z,10
2018-11-25T14:39:45.584Z,5
2018-11-25T14:40:55.296Z,5
2018-11-25T14:42:04.996Z,5
2018-11-25T14:43:14.703Z,5
2018-11-25T14:44:24.447Z,5
2018-11-25T14:45:34.177Z,5
2018-11-25T14:46:44.133Z,5
2018-11-25T14:47:53.868Z,5
2018-11-25T14:49:03.076Z,5
2018-11-25T14:50:13.053Z,5
2018-11-25T14:51:22.776Z,0
2018-11-25T14:52:32.485Z,0
2018-11-25T14:53:42.447Z,0
2018-11-25T14:54:58.516Z,0
2018-11-25T14:56:08.223Z,0
2018-11-25T14:57:18.237Z,0
2018-11-25T14:58:28.209Z,0
2018-11-25T14:59:37.671Z,0
2018-11-25T15:00:46.894Z,0
2018-11-25T15:01:56.615Z,0
2018-11-25T15:03:06.397Z,0
2018-11-25T15:04:16.119Z,0
2018-11-25T15:05:25.585Z,0
2018-11-25T15:06:39.141Z,0
2018-11-25T15:07:48.872Z,0
2018-11-25T15:08:58.582Z,0
2018-11-25T15:10:07.818Z,0
2018-11-25T15:11:17.786Z,0
2018-11-25T15:12:27.765Z,0
2018-11-25T15:13:37.717Z,0
2018-11-25T15:14:47.681Z,0
2018-11-25T15:15:57.635Z,0
2018-11-25T15:17:07.145Z,0
2018-11-25T15:18:16.902Z,0
2018-11-25T15:19:26.860Z,0
2018-11-25T15:20:36.578Z,0
2018-11-25T15:21:46.296Z,0
2018-11-25T15:22:56.021Z,0
2018-11-25T15:24:05.732Z,0
2018-11-25T15:25:15.192Z,0
2018-11-25T15:26:24.910Z,0
2018-11-25T15:27:34.398Z,0
2018-11-25T15:28:44.108Z,0
2018-11-25T15:29:53.824Z,0
2018-11-25T15:31:03.038Z,0
2018-11-25T15:32:12.747Z,0
2018-11-25T15:33:22.754Z,0
2018-11-25T15:34:32.473Z,0
2018-11-25T15:35:42.201Z,0
2018-11-25T15:36:52.155Z,0
2018-11-25T15:38:01.881Z,0
2018-11-25T15:39:11.967Z,0
2018-11-25T15:40:21.766Z,0
2018-11-25T15:41:31.743Z,0
2018-11-25T15:42:41.707Z,0
2018-11-25T15:43:51.667Z,0
2018-11-25T15:45:01.719Z,0
2018-11-25T15:46:12.330Z,0
2018-11-25T15:47:22.037Z,0
2018-11-25T15:48:32.021Z,0
2018-11-25T15:49:41.243Z,0
2018-11-25T15:50:50.959Z,0
2018-11-25T15:52:00.678Z,0
2018-11-25T15:53:10.660Z,0
2018-11-25T15:54:20.446Z,0
2018-11-25T15:55:30.162Z,0
2018-11-25T15:56:41.474Z,0
2018-11-25T15:57:51.738Z,0
2018-11-25T15:59:01.576Z,0
2018-11-25T16:00:11.317Z,0
2018-11-25T16:01:21.074Z,0
2018-11-25T16:02:30.840Z,0
2018-11-25T16:03:40.901Z,0
2018-11-25T16:04:50.901Z,0
2018-11-25T16:06:00.938Z,0
2018-11-25T16:07:10.673Z,0
2018-11-25T16:08:19.963Z,0
2018-11-25T16:09:29.451Z,0
2018-11-25T16:10:39.199Z,0
2018-11-25T16:11:49.278Z,0
2018-11-25T16:12:58.775Z,0
2018-11-25T16:14:08.554Z,0
2018-11-25T16:15:18.115Z,0
2018-11-25T16:16:28.108Z,0
2018-11-25T16:17:38.115Z,0
2018-11-25T16:18:48.106Z,0
2018-11-25T16:19:57.878Z,0
2018-11-25T16:21:07.864Z,0
2018-11-25T16:22:17.829Z,0
2018-11-25T16:23:27.297Z,0
2018-11-25T16:24:37.269Z,0
2018-11-25T16:25:47.244Z,0
2018-11-25T16:26:57.218Z,0
2018-11-25T16:28:06.950Z,0
2018-11-25T16:29:16.909Z,0
2018-11-25T16:30:26.884Z,0
2018-11-25T16:31:36.614Z,0
2018-11-25T16:32:46.581Z,0
2018-11-25T16:33:56.546Z,0
2018-11-25T16:35:06.001Z,0
2018-11-25T16:36:14.989Z,0
2018-11-25T16:37:24.958Z,0
2018-11-25T16:38:34.929Z,0
2018-11-25T16:39:44.150Z,0
2018-11-25T16:40:53.883Z,0
2018-11-25T16:42:03.360Z,0
2018-11-25T16:43:13.337Z,0
2018-11-25T16:44:24.480Z,0
2018-11-25T16:45:34.460Z,0
2018-11-25T16:46:44.434Z,0